Anaheim, California
Current Conditions -  °F | °C
As of 1:53 AM on Sunday 26 Oct 2014 (Local Time) from KFUL Reporting Station
Clear Clear  
Wind Chill: 18°   Ceiling: Unl
Heat Index: 18°   Visibility: 10mi
Dew Point: 14°   Wind: 5mph
Humidity: 78%   Direction: 80°E
Pressure: 29.99"   Gusts: NA
Location:  33.83°N, 117.91°W
Report Text: KFUL 260853Z 08004KT 10SM CLR 18/14 A2999 RMK AO2 SLP154 T01780139 56005 $
Loading
Personal Weather Stations






























Interactive Weather Map
Tropical Storm Tracking
New forecast layout! Learn more

10-Day Weather Forecast

Advertisements
Track Severe Weather on mobile